createdAt,value
2018-08-19T00:01:58.851Z,71.54
2018-08-19T00:06:55.276Z,72.79
2018-08-19T00:11:49.928Z,72.76
2018-08-19T00:16:44.594Z,71.44
2018-08-19T00:21:39.315Z,72.01
2018-08-19T00:26:33.935Z,73.18
2018-08-19T00:31:28.516Z,71.80
2018-08-19T00:36:34.454Z,72.60
2018-08-19T00:41:29.150Z,71.67
2018-08-19T00:46:30.577Z,71.38
2018-08-19T00:51:25.183Z,72.83
2018-08-19T00:56:20.789Z,72.76
2018-08-19T01:01:31.247Z,73.23
2018-08-19T01:06:26.070Z,71.64
2018-08-19T01:11:30.137Z,73.36
2018-08-19T01:16:25.659Z,72.52
2018-08-19T01:21:20.393Z,72.47
2018-08-19T01:26:14.948Z,72.90
2018-08-19T01:31:09.591Z,72.20
2018-08-19T01:36:04.234Z,72.74
2018-08-19T01:40:58.844Z,72.45
2018-08-19T01:45:53.459Z,73.96
2018-08-19T01:50:48.040Z,72.89
2018-08-19T01:55:42.658Z,72.61
2018-08-19T02:00:37.248Z,72.88
2018-08-19T02:05:34.845Z,73.35
2018-08-19T02:10:31.069Z,73.57
2018-08-19T02:15:27.115Z,72.39
2018-08-19T02:20:44.253Z,73.64
2018-08-19T02:25:43.478Z,73.08
2018-08-19T02:30:49.994Z,73.82
2018-08-19T02:35:50.293Z,73.66
2018-08-19T02:40:44.979Z,74.52
2018-08-19T02:45:39.623Z,73.30
2018-08-19T02:50:34.267Z,74.91
2018-08-19T02:55:29.017Z,74.09
2018-08-19T03:00:23.716Z,73.11
2018-08-19T03:05:18.380Z,73.09
2018-08-19T03:10:16.235Z,73.07
2018-08-19T03:15:13.156Z,73.85
2018-08-19T03:20:10.674Z,74.35
2018-08-19T03:25:05.738Z,74.28
2018-08-19T03:30:01.666Z,75.73
2018-08-19T03:35:07.289Z,75.24
2018-08-19T03:40:01.948Z,74.65
2018-08-19T03:45:03.600Z,76.53
2018-08-19T03:49:58.303Z,75.97
2018-08-19T03:54:52.947Z,75.88
2018-08-19T03:59:47.908Z,75.68
2018-08-19T04:04:42.583Z,75.28
2018-08-19T04:09:37.209Z,75.91
2018-08-19T04:14:31.932Z,75.83
2018-08-19T04:19:27.360Z,75.48
2018-08-19T04:24:22.032Z,75.45
2018-08-19T04:29:22.724Z,76.11
2018-08-19T04:34:17.319Z,74.98
2018-08-19T04:39:11.973Z,75.32
2018-08-19T04:44:06.612Z,75.25
2018-08-19T04:49:01.215Z,75.51
2018-08-19T04:53:55.818Z,76.49
2018-08-19T04:58:50.386Z,76.54
2018-08-19T05:03:46.267Z,75.62
2018-08-19T05:08:41.068Z,74.41
2018-08-19T05:13:35.681Z,73.98
2018-08-19T05:18:30.336Z,74.91
2018-08-19T05:23:24.951Z,74.77
2018-08-19T05:28:19.749Z,74.41
2018-08-19T05:33:14.423Z,74.80
2018-08-19T05:38:09.137Z,74.69
2018-08-19T05:43:03.799Z,75.27
2018-08-19T05:48:09.981Z,74.30
2018-08-19T05:53:04.751Z,74.97
2018-08-19T05:57:59.535Z,74.13
2018-08-19T06:02:59.936Z,74.82
2018-08-19T06:07:59.795Z,75.19
2018-08-19T06:12:56.345Z,74.44
2018-08-19T06:17:51.102Z,73.37
2018-08-19T06:22:45.863Z,73.98
2018-08-19T06:27:46.848Z,73.87
2018-08-19T06:32:41.723Z,73.70
2018-08-19T06:37:36.569Z,72.87
2018-08-19T06:42:31.357Z,73.09
2018-08-19T06:47:26.079Z,72.70
2018-08-19T06:52:21.077Z,68.98
2018-08-19T06:57:15.814Z,68.36
2018-08-19T07:02:10.607Z,67.05
2018-08-19T07:07:07.144Z,66.79
2018-08-19T07:12:06.728Z,65.43
2018-08-19T07:17:01.374Z,62.81
2018-08-19T07:22:00.215Z,62.06
2018-08-19T07:26:55.130Z,61.21
2018-08-19T07:31:49.783Z,58.08
2018-08-19T07:36:44.385Z,57.58
2018-08-19T07:41:38.980Z,55.77
2018-08-19T07:46:33.693Z,55.51
2018-08-19T07:51:28.307Z,55.60
2018-08-19T07:56:23.023Z,53.74
2018-08-19T08:01:17.816Z,51.99
2018-08-19T08:06:12.473Z,51.82
2018-08-19T08:11:07.189Z,50.57
2018-08-19T08:16:02.864Z,51.64
2018-08-19T08:21:04.560Z,48.18
2018-08-19T08:25:59.152Z,48.06
2018-08-19T08:30:53.962Z,47.54
2018-08-19T08:35:53.759Z,45.01
2018-08-19T08:40:48.465Z,45.12
2018-08-19T08:45:43.784Z,46.73
2018-08-19T08:50:38.637Z,44.31
2018-08-19T08:55:33.399Z,44.76
2018-08-19T09:00:28.144Z,44.25
2018-08-19T09:05:22.778Z,46.88
2018-08-19T09:10:17.411Z,44.73
2018-08-19T09:15:12.091Z,43.58
2018-08-19T09:20:09.246Z,45.11
2018-08-19T09:25:03.991Z,42.48
2018-08-19T09:29:58.605Z,43.99
2018-08-19T09:34:53.432Z,46.11
2018-08-19T09:39:48.115Z,43.25
2018-08-19T09:44:43.591Z,44.17
2018-08-19T09:49:38.388Z,42.77
2018-08-19T09:54:34.649Z,42.72
2018-08-19T09:59:29.319Z,42.00
2018-08-19T10:04:25.177Z,42.71
2018-08-19T10:09:19.785Z,42.81
2018-08-19T10:14:14.562Z,41.12
2018-08-19T10:19:09.292Z,43.27
2018-08-19T10:24:25.404Z,43.27
2018-08-19T10:29:20.016Z,43.41
2018-08-19T10:34:14.592Z,42.47
2018-08-19T10:39:15.942Z,40.38
2018-08-19T10:44:10.512Z,42.23
2018-08-19T10:49:05.104Z,40.97
2018-08-19T10:53:59.804Z,42.30
2018-08-19T10:58:59.314Z,41.69
2018-08-19T11:03:54.023Z,43.59
2018-08-19T11:08:55.660Z,41.49
2018-08-19T11:13:50.298Z,41.04
2018-08-19T11:18:46.944Z,41.80
2018-08-19T11:23:42.937Z,40.11
2018-08-19T11:28:44.266Z,40.19
2018-08-19T11:33:42.793Z,40.74
2018-08-19T11:38:38.048Z,40.54
2018-08-19T11:43:39.154Z,40.82
2018-08-19T11:48:34.600Z,40.91
2018-08-19T11:53:29.299Z,40.03
2018-08-19T11:58:37.304Z,39.31
2018-08-19T12:03:46.198Z,40.46
2018-08-19T12:08:40.864Z,41.51
2018-08-19T12:13:35.511Z,41.72
2018-08-19T12:18:30.142Z,41.78
2018-08-19T12:23:24.756Z,42.19
2018-08-19T12:28:19.391Z,41.08
2018-08-19T12:33:24.540Z,39.88
2018-08-19T12:38:19.312Z,39.77
2018-08-19T12:43:13.887Z,42.44
2018-08-19T12:48:08.567Z,41.26
2018-08-19T12:53:03.274Z,42.56
2018-08-19T12:58:03.234Z,41.30
2018-08-19T13:02:57.983Z,41.94
2018-08-19T13:07:52.829Z,41.12
2018-08-19T13:12:53.940Z,40.97
2018-08-19T13:17:48.580Z,42.87
2018-08-19T13:22:49.821Z,40.97
2018-08-19T13:27:44.512Z,40.45
2018-08-19T13:32:39.982Z,40.85
2018-08-19T13:37:34.859Z,41.55
2018-08-19T13:42:29.751Z,42.60
2018-08-19T13:47:24.714Z,42.14
2018-08-19T13:52:19.602Z,43.27
2018-08-19T13:57:14.578Z,42.50
2018-08-19T14:02:09.388Z,42.85
2018-08-19T14:07:05.020Z,41.65
2018-08-19T14:11:59.919Z,41.26
2018-08-19T14:16:54.961Z,41.70
2018-08-19T14:21:49.859Z,39.52
2018-08-19T14:26:44.740Z,40.61
2018-08-19T14:31:39.512Z,39.26
2018-08-19T14:36:34.399Z,40.94
2018-08-19T14:41:29.499Z,39.51
2018-08-19T14:46:25.206Z,40.31
2018-08-19T14:51:19.924Z,39.75
2018-08-19T14:56:17.142Z,39.23
2018-08-19T15:01:12.055Z,40.09
2018-08-19T15:06:07.357Z,40.49
2018-08-19T15:11:05.066Z,40.61
2018-08-19T15:16:00.046Z,39.92
2018-08-19T15:20:54.985Z,40.11
2018-08-19T15:25:49.859Z,40.51
2018-08-19T15:30:44.925Z,38.42
2018-08-19T15:35:40.059Z,38.01
2018-08-19T15:40:41.589Z,38.66
2018-08-19T15:45:36.577Z,39.48
2018-08-19T15:50:31.404Z,39.09
2018-08-19T15:55:26.368Z,39.40
2018-08-19T16:00:22.988Z,41.62
2018-08-19T16:05:18.469Z,40.69
2018-08-19T16:10:15.596Z,39.56
2018-08-19T16:15:14.577Z,39.61
2018-08-19T16:20:09.558Z,40.69
2018-08-19T16:25:04.496Z,40.05
2018-08-19T16:29:59.364Z,40.82
2018-08-19T16:34:54.039Z,42.85
2018-08-19T16:40:03.546Z,42.30
2018-08-19T16:44:58.226Z,41.62
2018-08-19T16:49:53.713Z,43.32
2018-08-19T16:54:57.558Z,43.49
2018-08-19T16:59:52.466Z,43.88
2018-08-19T17:04:47.390Z,43.63
2018-08-19T17:09:42.399Z,45.35
2018-08-19T17:27:48.980Z,47.46
2018-08-19T17:32:43.721Z,51.38
2018-08-19T17:37:38.243Z,51.76
2018-08-19T17:42:33.840Z,52.25
2018-08-19T17:47:28.423Z,51.51
2018-08-19T17:52:23.072Z,52.33
2018-08-19T17:57:17.767Z,52.69
2018-08-19T18:02:12.343Z,52.07
2018-08-19T18:07:11.504Z,51.60
2018-08-19T18:12:06.235Z,52.75
2018-08-19T18:17:01.359Z,52.48
2018-08-19T18:21:56.088Z,52.15
2018-08-19T18:26:50.822Z,53.05
2018-08-19T18:31:58.274Z,52.33
2018-08-19T18:36:52.866Z,51.98
2018-08-19T18:41:48.276Z,52.65
2018-08-19T18:46:43.164Z,53.02
2018-08-19T19:04:45.894Z,54.00
2018-08-19T19:09:48.760Z,53.74
2018-08-19T19:14:43.625Z,53.51
2018-08-19T19:19:45.118Z,54.55
2018-08-19T19:24:41.119Z,54.41
2018-08-19T19:29:35.948Z,54.49
2018-08-19T19:34:33.383Z,53.73
2018-08-19T19:39:28.271Z,53.08
2018-08-19T19:44:29.324Z,53.10
2018-08-19T19:49:24.517Z,54.36
2018-08-19T19:54:19.323Z,54.24
2018-08-19T19:59:14.528Z,54.83
2018-08-19T20:04:09.306Z,56.00
2018-08-19T20:09:04.267Z,55.74
2018-08-19T20:14:00.928Z,55.77
2018-08-19T20:18:55.686Z,56.62
2018-08-19T20:23:50.346Z,57.18
2018-08-19T20:28:45.108Z,55.56
2018-08-19T20:33:39.767Z,56.59
2018-08-19T20:38:34.384Z,56.18
2018-08-19T20:43:29.036Z,56.62
2018-08-19T20:48:23.978Z,54.58
2018-08-19T20:53:19.239Z,56.87
2018-08-19T20:58:14.300Z,56.02
2018-08-19T21:03:09.472Z,56.89
2018-08-19T21:08:14.867Z,55.78
2018-08-19T21:13:10.860Z,54.84
2018-08-19T21:18:06.208Z,56.37
2018-08-19T21:23:00.862Z,55.93
2018-08-19T21:27:55.607Z,56.92
2018-08-19T21:32:50.218Z,56.31
2018-08-19T21:37:46.779Z,57.52
2018-08-19T21:42:50.240Z,55.40
2018-08-19T21:47:44.804Z,54.31
2018-08-19T21:53:17.712Z,55.38
2018-08-19T21:58:12.373Z,57.62
2018-08-19T22:03:16.239Z,58.08
2018-08-19T22:08:10.937Z,57.63
2018-08-19T22:13:06.739Z,58.26
2018-08-19T22:18:02.052Z,58.00
2018-08-19T22:22:56.997Z,57.80
2018-08-19T22:27:51.596Z,57.76
2018-08-19T22:32:46.235Z,58.41
2018-08-19T22:37:40.902Z,58.36
2018-08-19T22:42:35.494Z,58.30
2018-08-19T22:47:30.219Z,59.98
2018-08-19T22:52:24.928Z,61.79
2018-08-19T22:57:19.633Z,62.52
2018-08-19T23:02:15.971Z,61.50
2018-08-19T23:07:10.576Z,62.42
2018-08-19T23:12:05.559Z,61.17
2018-08-19T23:17:00.156Z,60.95
2018-08-19T23:21:54.730Z,61.53
2018-08-19T23:26:49.601Z,59.97
2018-08-19T23:31:44.203Z,60.31
2018-08-19T23:36:38.808Z,59.94
2018-08-19T23:41:33.424Z,60.16
2018-08-19T23:46:28.041Z,60.62
2018-08-19T23:51:38.036Z,61.28
2018-08-19T23:56:33.096Z,60.70
